Terminal Aerodrome Forecast
Issued by NWS Sterling, VA

Current Version | Previous Version | Graphics & Text | Print | Product List | Glossary On
Versions: 1 2 3 4 5 6 7 8 9 10 11 12 13 14 15 16 17 18 19 20 21 22 23 24 25 26
000
FTUS41 KLWX 262041 AAB
TAFDCA
TAF AMD
KDCA 262041Z 2621/2718 27016G26KT P6SM BKN100 BKN250
     FM262200 28012G20KT P6SM -TSRA BKN040CB
     FM270100 25006KT P6SM -SHRA VCTS BKN050CB
     FM270200 28005KT P6SM BKN070
     FM270500 01007KT P6SM BKN050
     FM271000 04008KT P6SM OVC020=

USA.gov is the U.S. government's official web portal to all federal, state and local government web resources and services.